Time;durP1;ratioP1;P1;durP2;ratioP2;P2;SDS_P1;SDS_P2;PMS_P1;PMS_P2;Temp;Humidity;BMP_temperature;BMP_pressure;BME280_temperature;BME280_humidity;BME280_pressure;Samples;Min_cycle;Max_cycle;Signal;HPM_P1;HPM_P2
2022/10/02 00:02:27;;;;;;;;;;;;;;;12.77;85.56;101375.16;5035633;28;19913;-66
2022/10/02 00:04:56;;;;;;;;;;;;;;;12.77;85.37;101380.41;5052432;28;19912;-65
2022/10/02 00:07:25;;;;;;;;;;;;;;;12.77;85.58;101377.78;5044576;28;19960;-70
2022/10/02 00:09:53;;;;;;;;;;;;;;;12.76;85.54;101371.69;5043625;28;19913;-71
2022/10/02 00:12:20;;;;;;;;;;;;;;;12.76;85.96;101379.53;5038782;28;20255;-70
2022/10/02 00:14:46;;;;;;;;;;;;;;;12.77;85.96;101383.00;5044748;28;19919;-70
2022/10/02 00:17:21;;;;;;;;;;;;;;;12.77;86.06;101389.13;5051772;28;20414;-70
2022/10/02 00:19:46;;;;;;;;;;;;;;;12.79;86.07;101389.16;5052199;28;19912;-70
2022/10/02 00:22:22;;;;;;;;;;;;;;;12.79;86.07;101392.66;5051762;28;19962;-70
2022/10/02 00:25:00;;;;;;;;;;;;;;;12.79;86.32;101395.28;5037047;28;19940;-70
2022/10/02 00:27:44;;;;;;;;;;;;;;;12.80;86.57;101394.44;5051805;28;20023;-70
2022/10/02 00:30:11;;;;;;;;;;;;;;;12.82;86.53;101399.72;5051675;28;19928;-70
2022/10/02 00:32:40;;;;;;;;;;;;;;;12.81;86.74;101400.56;5050163;28;19913;-70
2022/10/02 00:35:24;;;;;;;;;;;;;;;12.82;86.58;101402.31;5051548;28;19913;-70
2022/10/02 00:38:07;;;;;;;;;;;;;;;12.83;87.71;101401.47;5051846;28;20453;-70
2022/10/02 00:40:36;;;;;;;;;;;;;;;12.84;86.85;101408.47;5051961;28;19913;-70
2022/10/02 00:43:02;;;;;;;;;;;;;;;12.85;86.91;101408.50;5051597;28;20403;-70
2022/10/02 00:45:38;;;;;;;;;;;;;;;12.87;86.68;101401.59;5044328;28;19929;-70
2022/10/02 00:48:35;;;;;;;;;;;;;;;12.87;86.56;101400.69;5051206;28;19924;-70
2022/10/02 00:51:19;;;;;;;;;;;;;;;12.87;86.81;101398.97;5001546;28;19956;-70
2022/10/02 00:53:44;;;;;;;;;;;;;;;12.88;86.90;101402.47;5029266;28;19909;-70
2022/10/02 00:56:13;;;;;;;;;;;;;;;12.90;87.21;101403.38;5042856;28;19921;-70
2022/10/02 00:58:44;;;;;;;;;;;;;;;12.89;87.17;101404.25;5030952;28;20392;-70
2022/10/02 01:01:15;;;;;;;;;;;;;;;12.88;87.14;101407.69;5031464;28;19917;-70
2022/10/02 01:03:43;;;;;;;;;;;;;;;12.89;87.22;101404.25;5031068;28;20358;-70
2022/10/02 01:06:09;;;;;;;;;;;;;;;12.89;87.35;101404.25;5036465;28;20391;-70
2022/10/02 01:08:35;;;;;;;;;;;;;;;12.90;87.17;101405.97;5032620;28;19928;-65
2022/10/02 01:11:01;;;;;;;;;;;;;;;12.91;87.73;101415.59;5034930;28;19967;-65
2022/10/02 01:13:26;;;;;;;;;;;;;;;12.88;87.42;101412.91;5050875;28;19912;-65
2022/10/02 01:15:54;;;;;;;;;;;;;;;12.90;87.59;101420.81;5048546;28;20295;-65
2022/10/02 01:18:20;;;;;;;;;;;;;;;12.89;87.68;101404.25;5038114;28;20412;-65
2022/10/02 01:20:51;;;;;;;;;;;;;;;12.90;88.19;101413.81;5035355;28;20004;-65
2022/10/02 01:23:19;;;;;;;;;;;;;;;12.90;87.72;101399.88;5041075;28;19920;-65
2022/10/02 01:25:45;;;;;;;;;;;;;;;12.90;88.29;101397.25;5044803;28;20027;-65
2022/10/02 01:28:10;;;;;;;;;;;;;;;12.90;88.19;101403.38;5046238;28;20323;-65
2022/10/02 01:30:38;;;;;;;;;;;;;;;12.91;88.44;101397.28;5037473;28;19924;-65
2022/10/02 01:33:03;;;;;;;;;;;;;;;12.91;88.70;101407.75;5036905;28;19928;-65
2022/10/02 01:35:30;;;;;;;;;;;;;;;12.93;89.30;101395.59;5050743;28;19913;-65
2022/10/02 01:37:56;;;;;;;;;;;;;;;12.92;88.79;101393.84;5050414;28;20002;-65
2022/10/02 01:40:29;;;;;;;;;;;;;;;12.93;88.84;101406.03;5030950;28;19978;-65
2022/10/02 01:42:56;;;;;;;;;;;;;;;12.94;88.51;101406.94;5050411;28;19935;-65
2022/10/02 01:45:27;;;;;;;;;;;;;;;12.96;89.69;101405.25;5050606;28;19921;-65
2022/10/02 01:48:08;;;;;;;;;;;;;;;12.95;88.70;101404.38;5050358;28;19921;-65
2022/10/02 01:50:47;;;;;;;;;;;;;;;12.96;88.95;101411.38;5040013;28;19921;-65
2022/10/02 01:53:24;;;;;;;;;;;;;;;12.97;88.83;101413.13;5050521;28;19983;-65
2022/10/02 01:56:00;;;;;;;;;;;;;;;12.98;88.87;101411.41;5044988;28;19921;-65
2022/10/02 01:58:48;;;;;;;;;;;;;;;12.98;88.74;101409.66;5042225;28;20019;-65
2022/10/02 02:01:20;;;;;;;;;;;;;;;12.99;89.45;101408.81;5050279;28;19917;-65
2022/10/02 02:03:57;;;;;;;;;;;;;;;12.98;89.28;101404.44;5042920;28;19917;-65
2022/10/02 02:06:48;;;;;;;;;;;;;;;12.99;89.65;101408.81;5031709;28;19925;-70
2022/10/02 02:09:27;;;;;;;;;;;;;;;12.99;89.08;101411.44;5033961;28;19951;-70
2022/10/02 02:11:58;;;;;;;;;;;;;;;12.98;88.99;101409.66;5043042;28;20022;-70
2022/10/02 02:14:26;;;;;;;;;;;;;;;12.99;89.26;101411.44;5026532;28;19916;-70
2022/10/02 02:17:11;;;;;;;;;;;;;;;13.01;89.06;101412.34;5028259;28;19952;-70
2022/10/02 02:19:42;;;;;;;;;;;;;;;13.01;89.14;101416.72;5029211;28;19920;-70
2022/10/02 02:22:10;;;;;;;;;;;;;;;13.03;89.25;101410.66;5042674;28;19913;-70
2022/10/02 02:24:45;;;;;;;;;;;;;;;13.06;89.38;101417.69;5040474;28;19917;-70
2022/10/02 02:27:14;;;;;;;;;;;;;;;13.07;89.39;101413.34;5035703;28;19921;-70
2022/10/02 02:29:41;;;;;;;;;;;;;;;13.08;89.33;101415.09;5037066;28;20055;-70
2022/10/02 02:32:09;;;;;;;;;;;;;;;13.08;89.90;101409.84;5042352;28;19924;-70
2022/10/02 02:34:37;;;;;;;;;;;;;;;13.09;89.83;101415.13;5037299;28;20002;-70
2022/10/02 02:37:15;;;;;;;;;;;;;;;13.10;89.60;101413.41;5029574;28;19921;-65
2022/10/02 02:40:03;;;;;;;;;;;;;;;13.11;90.08;101416.06;5034642;28;19917;-65
2022/10/02 02:42:30;;;;;;;;;;;;;;;13.13;89.88;101413.47;5038080;28;20433;-65
2022/10/02 02:44:59;;;;;;;;;;;;;;;13.15;89.66;101401.31;5040278;28;19936;-65
2022/10/02 02:47:31;;;;;;;;;;;;;;;13.17;90.06;101404.84;5044451;28;19920;-65
2022/10/02 02:50:02;;;;;;;;;;;;;;;13.18;89.91;101417.09;5049628;28;19917;-65
2022/10/02 02:52:35;;;;;;;;;;;;;;;13.17;90.44;101410.94;5042390;28;20031;-65
2022/10/02 02:55:04;;;;;;;;;;;;;;;13.19;90.83;101422.34;5047411;28;20016;-65
2022/10/02 02:57:50;;;;;;;;;;;;;;;13.18;90.15;101423.19;5037446;28;19965;-65
2022/10/02 03:00:16;;;;;;;;;;;;;;;13.19;89.58;101426.69;5041959;28;19920;-65
2022/10/02 03:02:41;;;;;;;;;;;;;;;13.18;89.46;101423.19;5037235;28;20438;-65
2022/10/02 03:05:13;;;;;;;;;;;;;;;13.19;89.81;101426.69;5034816;28;19917;-65
2022/10/02 03:07:39;;;;;;;;;;;;;;;13.17;89.30;101431.03;5031348;28;19921;-70
2022/10/02 03:10:10;;;;;;;;;;;;;;;13.16;89.17;101429.25;5032039;28;19917;-70
2022/10/02 03:12:44;;;;;;;;;;;;;;;13.15;88.93;101424.84;5045197;28;19935;-70
2022/10/02 03:15:20;;;;;;;;;;;;;;;13.14;88.90;101418.75;5035752;28;20467;-70
2022/10/02 03:18:04;;;;;;;;;;;;;;;13.13;88.75;101424.81;5028133;28;19924;-70
2022/10/02 03:20:40;;;;;;;;;;;;;;;13.13;88.61;101424.81;5029266;28;20427;-70
2022/10/02 03:23:15;;;;;;;;;;;;;;;13.11;88.52;101420.44;5032370;28;19917;-70
2022/10/02 03:25:46;;;;;;;;;;;;;;;13.08;88.39;101423.84;5043136;28;19923;-70
2022/10/02 03:28:24;;;;;;;;;;;;;;;13.07;88.45;101423.81;5036726;28;20423;-70
2022/10/02 03:30:50;;;;;;;;;;;;;;;13.04;88.35;101420.25;5048768;28;20403;-70
2022/10/02 03:33:16;;;;;;;;;;;;;;;13.06;88.32;101422.91;5042524;28;19917;-70
2022/10/02 03:35:42;;;;;;;;;;;;;;;13.05;88.29;101432.50;5044030;28;20437;-70
2022/10/02 03:38:09;;;;;;;;;;;;;;;13.07;88.28;101429.03;5037814;28;19916;-65
2022/10/02 03:40:35;;;;;;;;;;;;;;;13.06;88.21;101428.13;5037640;28;19928;-65
2022/10/02 03:43:00;;;;;;;;;;;;;;;13.05;88.20;101436.88;5050135;28;19913;-64
2022/10/02 03:45:26;;;;;;;;;;;;;;;13.04;88.41;101451.66;5044134;28;19920;-65
2022/10/02 03:47:51;;;;;;;;;;;;;;;13.04;88.40;101454.28;5031505;28;19929;-64
2022/10/02 03:50:16;;;;;;;;;;;;;;;13.02;88.29;101449.84;5041149;28;19917;-65
2022/10/02 03:52:41;;;;;;;;;;;;;;;13.00;88.51;101443.72;5038983;28;20423;-65
2022/10/02 03:55:20;;;;;;;;;;;;;;;13.00;88.64;101447.19;5041669;28;19968;-65
2022/10/02 03:57:45;;;;;;;;;;;;;;;12.99;88.69;101448.06;5031064;28;19927;-65
2022/10/02 04:00:12;;;;;;;;;;;;;;;12.99;88.96;101441.94;5052521;28;19921;-65
2022/10/02 04:02:37;;;;;;;;;;;;;;;12.97;88.97;101443.63;5052391;28;19912;-65
2022/10/02 04:05:22;;;;;;;;;;;;;;;12.95;88.92;101445.34;5052584;28;19919;-65
2022/10/02 04:07:49;;;;;;;;;;;;;;;12.94;88.95;101438.34;5035229;28;20419;-65
2022/10/02 04:10:26;;;;;;;;;;;;;;;12.92;88.97;101438.31;5037570;28;20355;-65
2022/10/02 04:12:54;;;;;;;;;;;;;;;12.93;89.11;101442.66;5049951;28;19916;-65
2022/10/02 04:15:31;;;;;;;;;;;;;;;12.93;89.15;101442.66;5051800;28;19916;-65
2022/10/02 04:18:00;;;;;;;;;;;;;;;12.94;89.17;101441.81;5046250;28;20402;-65
2022/10/02 04:20:32;;;;;;;;;;;;;;;12.96;89.04;101439.25;5052361;28;19999;-65
2022/10/02 04:22:57;;;;;;;;;;;;;;;12.95;89.15;101440.13;5025600;28;19958;-65
2022/10/02 04:25:33;;;;;;;;;;;;;;;12.96;89.19;101434.91;5051592;28;19913;-65
2022/10/02 04:28:00;;;;;;;;;;;;;;;12.96;89.30;101441.84;5042615;28;20002;-65
2022/10/02 04:30:25;;;;;;;;;;;;;;;12.96;89.33;101431.41;5035071;28;20148;-65
2022/10/02 04:32:51;;;;;;;;;;;;;;;12.97;89.41;101434.03;5051853;28;20470;-65
2022/10/02 04:35:24;;;;;;;;;;;;;;;12.97;89.48;101439.28;5051411;28;19962;-65
2022/10/02 04:37:57;;;;;;;;;;;;;;;12.99;89.53;101444.53;5042020;28;19941;-65
2022/10/02 04:40:25;;;;;;;;;;;;;;;12.99;89.46;101440.22;5035897;28;19948;-65
2022/10/02 04:43:09;;;;;;;;;;;;;;;12.99;89.72;101441.94;5051671;28;19917;-65
2022/10/02 04:45:40;;;;;;;;;;;;;;;12.97;89.53;101447.13;5051517;28;19975;-65
2022/10/02 04:48:24;;;;;;;;;;;;;;;12.99;89.70;101462.84;5035348;28;20346;-65
2022/10/02 04:50:49;;;;;;;;;;;;;;;12.99;89.98;101458.53;5050574;28;19913;-65
2022/10/02 04:53:33;;;;;;;;;;;;;;;13.00;90.39;101468.13;5051533;28;20482;-65
2022/10/02 04:56:04;;;;;;;;;;;;;;;13.00;90.17;101472.47;5047528;28;20023;-65
2022/10/02 04:58:29;;;;;;;;;;;;;;;13.00;89.99;101470.75;5032695;28;20470;-65
2022/10/02 05:01:13;;;;;;;;;;;;;;;13.02;90.79;101479.53;5049154;28;19958;-65
2022/10/02 05:03:51;;;;;;;;;;;;;;;13.04;90.63;101476.94;5033454;28;19917;-65
2022/10/02 05:06:20;;;;;;;;;;;;;;;13.04;90.87;101475.19;5035304;28;19917;-65
2022/10/02 05:08:45;;;;;;;;;;;;;;;13.04;90.60;101472.59;5037121;28;19928;-65
2022/10/02 05:11:16;;;;;;;;;;;;;;;13.08;90.81;101475.28;5048242;28;19920;-65
2022/10/02 05:13:53;;;;;;;;;;;;;;;13.09;90.74;101475.31;5050736;28;19912;-65
2022/10/02 05:16:36;;;;;;;;;;;;;;;13.11;90.91;101467.53;5034510;28;19917;-66
2022/10/02 05:19:20;;;;;;;;;;;;;;;13.12;91.39;101477.13;5043488;28;19916;-65
2022/10/02 05:21:51;;;;;;;;;;;;;;;13.13;91.43;101471.91;5038071;28;20008;-65
2022/10/02 05:24:34;;;;;;;;;;;;;;;13.15;91.11;101477.19;5051259;28;19913;-65
2022/10/02 05:27:05;;;;;;;;;;;;;;;13.17;91.51;101478.13;5044149;28;20022;-65
2022/10/02 05:29:36;;;;;;;;;;;;;;;13.19;91.95;101486.88;5044791;28;20540;-66
2022/10/02 05:32:14;;;;;;;;;;;;;;;13.19;91.75;101490.41;5048892;28;19913;-66
2022/10/02 05:34:42;;;;;;;;;;;;;;;13.21;91.71;101493.91;5045736;28;20007;-65
2022/10/02 05:37:23;;;;;;;;;;;;;;;13.23;92.07;101499.19;5036975;28;20364;-65
2022/10/02 05:39:54;;;;;;;;;;;;;;;13.24;91.89;101495.72;5026486;28;20308;-65
2022/10/02 05:42:27;;;;;;;;;;;;;;;13.25;91.73;101496.59;5038946;28;19913;-65
2022/10/02 05:44:59;;;;;;;;;;;;;;;13.25;91.88;101501.84;5046810;28;19921;-65
2022/10/02 05:47:28;;;;;;;;;;;;;;;13.26;91.68;101509.72;5050616;28;19917;-66
2022/10/02 05:50:13;;;;;;;;;;;;;;;13.28;91.75;101502.81;5035447;28;19917;-65
2022/10/02 05:52:41;;;;;;;;;;;;;;;13.29;91.76;101499.31;5050528;28;19913;-65
2022/10/02 05:55:25;;;;;;;;;;;;;;;13.29;91.63;101507.16;5047506;28;19920;-65
2022/10/02 05:57:54;;;;;;;;;;;;;;;13.30;92.02;101506.34;5050500;28;19922;-66
2022/10/02 06:00:29;;;;;;;;;;;;;;;13.31;91.99;101510.72;5037396;28;20014;-65
2022/10/02 06:03:13;;;;;;;;;;;;;;;13.32;92.35;101504.63;5045263;28;19924;-65
2022/10/02 06:05:41;;;;;;;;;;;;;;;13.32;92.07;101509.84;5039415;28;19921;-65
2022/10/02 06:08:07;;;;;;;;;;;;;;;13.34;92.53;101515.16;5035020;28;19921;-65
2022/10/02 06:10:36;;;;;;;;;;;;;;;13.34;92.31;101507.31;5029622;28;20393;-65
2022/10/02 06:13:07;;;;;;;;;;;;;;;13.34;92.26;101510.81;5039122;28;20155;-65
2022/10/02 06:15:43;;;;;;;;;;;;;;;13.35;92.32;101519.56;5022350;28;19996;-65
2022/10/02 06:18:12;;;;;;;;;;;;;;;13.36;92.15;101526.56;5037121;28;20266;-65
2022/10/02 06:20:56;;;;;;;;;;;;;;;13.36;92.39;101527.44;5044428;28;19916;-65
2022/10/02 06:23:25;;;;;;;;;;;;;;;13.37;92.71;101534.44;5054388;28;19967;-66
2022/10/02 06:25:50;;;;;;;;;;;;;;;13.37;92.51;101539.69;5054106;28;20365;-66
2022/10/02 06:28:18;;;;;;;;;;;;;;;13.38;93.13;101540.56;5045660;28;19971;-66
2022/10/02 06:30:47;;;;;;;;;;;;;;;13.39;93.03;101542.34;5048404;28;19952;-65
2022/10/02 06:33:22;;;;;;;;;;;;;;;13.41;92.87;101542.38;5054042;28;19917;-65
2022/10/02 06:36:06;;;;;;;;;;;;;;;13.42;92.74;101542.41;5053966;28;19951;-66
2022/10/02 06:38:34;;;;;;;;;;;;;;;13.42;92.89;101542.41;5041131;28;19921;-65
2022/10/02 06:41:01;;;;;;;;;;;;;;;13.45;92.75;101544.22;5035613;28;20404;-65
2022/10/02 06:43:39;;;;;;;;;;;;;;;13.46;92.87;101541.63;5053817;28;20284;-65
2022/10/02 06:46:21;;;;;;;;;;;;;;;13.49;92.89;101552.16;5043729;28;19928;-66
2022/10/02 06:49:00;;;;;;;;;;;;;;;13.52;93.03;101564.44;5037719;28;20087;-66
2022/10/02 06:51:38;;;;;;;;;;;;;;;13.51;93.03;101563.56;5040672;28;19923;-66
2022/10/02 06:54:22;;;;;;;;;;;;;;;13.53;92.99;101567.09;5047722;28;19944;-64
2022/10/02 06:56:56;;;;;;;;;;;;;;;13.53;92.92;101572.34;5035220;28;20070;-65
2022/10/02 06:59:48;;;;;;;;;;;;;;;13.52;93.10;101577.53;5033881;28;19924;-65
2022/10/02 07:02:19;;;;;;;;;;;;;;;13.51;93.42;101574.06;5035763;28;20371;-65
2022/10/02 07:05:03;;;;;;;;;;;;;;;13.51;93.42;101581.00;5044356;28;20003;-65
2022/10/02 07:07:42;;;;;;;;;;;;;;;13.52;93.26;101581.03;5038724;28;19925;-65
2022/10/02 07:10:16;;;;;;;;;;;;;;;13.54;93.25;101588.91;5044650;28;19917;-65
2022/10/02 07:13:01;;;;;;;;;;;;;;;13.56;93.52;101582.00;5049162;28;20322;-65
2022/10/02 07:15:45;;;;;;;;;;;;;;;13.58;93.67;101582.91;5032746;28;19921;-66
2022/10/02 07:18:18;;;;;;;;;;;;;;;13.61;93.64;101576.88;5030424;28;20011;-65
2022/10/02 07:20:53;;;;;;;;;;;;;;;13.62;93.53;101578.66;5038852;28;19925;-65
2022/10/02 07:23:23;;;;;;;;;;;;;;;13.64;93.51;101580.44;5031219;28;20000;-65
2022/10/02 07:25:57;;;;;;;;;;;;;;;13.65;93.42;101582.19;5031594;28;19921;-65
2022/10/02 07:28:38;;;;;;;;;;;;;;;13.68;93.38;101587.50;5032474;28;19922;-65
2022/10/02 07:31:10;;;;;;;;;;;;;;;13.69;93.58;101589.28;5039536;28;20000;-65
2022/10/02 07:33:59;;;;;;;;;;;;;;;13.72;93.58;101591.97;5041481;28;19921;-66
2022/10/02 07:36:42;;;;;;;;;;;;;;;13.73;93.42;101585.91;5036512;28;19926;-66
2022/10/02 07:39:26;;;;;;;;;;;;;;;13.74;93.69;101599.88;5036576;28;19954;-65
2022/10/02 07:41:57;;;;;;;;;;;;;;;13.76;93.76;101594.66;5037190;28;19928;-65
2022/10/02 07:44:41;;;;;;;;;;;;;;;13.76;93.87;101600.81;5039140;28;19948;-65
2022/10/02 07:47:18;;;;;;;;;;;;;;;13.78;93.56;101606.06;5051598;28;20299;-66
2022/10/02 07:49:50;;;;;;;;;;;;;;;13.79;93.63;101602.56;5036964;28;19913;-66
2022/10/02 07:52:28;;;;;;;;;;;;;;;13.81;93.75;101603.50;5038326;28;19917;-65
2022/10/02 07:55:14;;;;;;;;;;;;;;;13.84;93.60;101609.69;5029482;28;19921;-65
2022/10/02 07:57:57;;;;;;;;;;;;;;;13.88;93.73;101603.69;5022611;28;19932;-65
2022/10/02 08:00:23;;;;;;;;;;;;;;;13.91;93.98;101601.13;5052233;28;20011;-65
2022/10/02 08:02:51;;;;;;;;;;;;;;;13.95;93.47;101611.66;5040915;28;20062;-65
2022/10/02 08:05:28;;;;;;;;;;;;;;;13.97;93.73;101605.63;5031369;28;19917;-66
2022/10/02 08:07:57;;;;;;;;;;;;;;;14.00;93.57;101616.16;5032706;28;19925;-66
2022/10/02 08:10:24;;;;;;;;;;;;;;;14.02;93.59;101617.09;5045554;28;20288;-65
2022/10/02 08:13:09;;;;;;;;;;;;;;;14.05;93.75;101630.25;5030516;28;19921;-66
2022/10/02 08:15:36;;;;;;;;;;;;;;;14.08;93.62;101630.31;5046930;28;20319;-66
2022/10/02 08:18:17;;;;;;;;;;;;;;;14.11;93.68;101633.84;5052198;28;19920;-65
2022/10/02 08:20:43;;;;;;;;;;;;;;;14.13;94.07;101640.03;5038094;28;19924;-65
2022/10/02 08:23:11;;;;;;;;;;;;;;;14.15;93.89;101643.56;5031247;28;19921;-65
2022/10/02 08:25:41;;;;;;;;;;;;;;;14.17;94.07;101644.50;5032174;28;19921;-65
2022/10/02 08:28:10;;;;;;;;;;;;;;;14.19;93.29;101646.28;5034692;28;19928;-72
2022/10/02 08:30:36;;;;;;;;;;;;;;;14.21;93.52;101651.56;5034983;28;20044;-71
2022/10/02 08:33:09;;;;;;;;;;;;;;;14.22;93.72;101648.97;5042931;28;20011;-73
2022/10/02 08:35:40;;;;;;;;;;;;;;;14.24;93.62;101656.88;5032673;28;19940;-73
2022/10/02 08:38:22;;;;;;;;;;;;;;;14.25;93.57;101662.16;5035980;28;19919;-73
2022/10/02 08:41:03;;;;;;;;;;;;;;;14.29;93.67;101665.72;5045741;28;19920;-73
2022/10/02 08:43:31;;;;;;;;;;;;;;;14.33;93.62;101672.78;5050565;28;19920;-73
2022/10/02 08:46:01;;;;;;;;;;;;;;;14.35;93.59;101670.19;5040098;28;19928;-74
2022/10/02 08:48:48;;;;;;;;;;;;;;;14.37;93.68;101674.63;5051670;28;19964;-74
2022/10/02 08:51:29;;;;;;;;;;;;;;;14.40;94.14;101665.94;5045288;28;19963;-73
2022/10/02 08:54:00;;;;;;;;;;;;;;;14.43;93.67;101664.25;5051566;28;19917;-72
2022/10/02 08:56:31;;;;;;;;;;;;;;;14.46;93.78;101676.56;5040077;28;20007;-66
2022/10/02 08:59:03;;;;;;;;;;;;;;;14.50;93.59;101675.78;5051347;28;20383;-66
2022/10/02 09:01:32;;;;;;;;;;;;;;;14.52;93.44;101670.56;5046816;28;19943;-66
2022/10/02 09:04:08;;;;;;;;;;;;;;;14.54;93.25;101677.63;5036344;28;19921;-65
2022/10/02 09:06:52;;;;;;;;;;;;;;;14.57;93.65;101693.41;5051054;28;20384;-65
2022/10/02 09:09:36;;;;;;;;;;;;;;;14.57;93.61;101697.75;5050921;28;19963;-66
2022/10/02 09:12:11;;;;;;;;;;;;;;;14.58;93.85;101699.53;5036198;28;19967;-66
2022/10/02 09:14:43;;;;;;;;;;;;;;;14.60;93.42;101692.59;5035926;28;19924;-66
2022/10/02 09:17:29;;;;;;;;;;;;;;;14.60;93.17;101695.22;5050953;28;20143;-65
2022/10/02 09:20:03;;;;;;;;;;;;;;;14.60;93.24;101700.47;5040989;28;20003;-66
2022/10/02 09:22:58;;;;;;;;;;;;;;;14.64;93.04;101693.56;5046777;28;20281;-65
2022/10/02 09:25:42;;;;;;;;;;;;;;;14.67;93.02;101699.78;5038277;28;19971;-66
2022/10/02 09:28:07;;;;;;;;;;;;;;;14.73;93.21;101689.41;5050821;28;19943;-75
2022/10/02 09:30:51;;;;;;;;;;;;;;;14.78;92.95;101686.84;5050923;28;20581;-75
2022/10/02 09:33:35;;;;;;;;;;;;;;;14.83;92.89;101692.19;5045020;28;19941;-75
2022/10/02 09:36:03;;;;;;;;;;;;;;;14.86;92.49;101692.25;5037951;28;19916;-75
2022/10/02 09:38:34;;;;;;;;;;;;;;;14.89;92.75;101698.44;5050662;28;19916;-73
2022/10/02 09:41:13;;;;;;;;;;;;;;;14.94;92.75;101709.03;5050695;28;19924;-73
2022/10/02 09:43:42;;;;;;;;;;;;;;;14.96;92.49;101707.31;5043737;28;19921;-72
2022/10/02 09:46:25;;;;;;;;;;;;;;;15.03;92.51;101708.31;5050348;28;19960;-73
2022/10/02 09:49:14;;;;;;;;;;;;;;;15.09;92.57;101711.06;5050523;28;19917;-73
2022/10/02 09:51:58;;;;;;;;;;;;;;;15.16;92.13;101715.56;5047238;28;20399;-74
2022/10/02 09:54:41;;;;;;;;;;;;;;;15.23;92.38;101706.94;5043400;28;19927;-73
2022/10/02 09:57:21;;;;;;;;;;;;;;;15.28;91.97;101709.69;5050472;28;20118;-73
2022/10/02 09:59:57;;;;;;;;;;;;;;;15.32;92.27;101715.84;5050566;28;19912;-72
2022/10/02 10:02:36;;;;;;;;;;;;;;;15.32;91.84;101711.47;5040041;28;19928;-73
2022/10/02 10:05:19;;;;;;;;;;;;;;;15.33;91.64;101718.50;5044206;28;19924;-73
2022/10/02 10:07:45;;;;;;;;;;;;;;;15.43;91.97;101725.69;5031609;28;20403;-74
2022/10/02 10:10:31;;;;;;;;;;;;;;;15.56;91.89;101720.66;5044109;28;19921;-74
2022/10/02 10:12:59;;;;;;;;;;;;;;;15.66;92.05;101712.06;5043331;28;19913;-74
2022/10/02 10:15:30;;;;;;;;;;;;;;;15.74;91.83;101713.09;5050212;28;19920;-73
2022/10/02 10:18:09;;;;;;;;;;;;;;;15.85;91.35;101721.16;5033015;28;19917;-73
2022/10/02 10:21:01;;;;;;;;;;;;;;;15.95;91.56;101723.09;5038553;28;19916;-74
2022/10/02 10:23:55;;;;;;;;;;;;;;;16.04;90.75;101724.97;5050342;28;19999;-73
2022/10/02 10:26:25;;;;;;;;;;;;;;;16.11;90.55;101733.84;5049205;28;20004;-73
2022/10/02 10:28:59;;;;;;;;;;;;;;;16.12;89.85;101738.22;5032321;28;19929;-74
2022/10/02 10:31:40;;;;;;;;;;;;;;;16.13;89.94;101750.50;5035687;28;20471;-74
2022/10/02 10:34:28;;;;;;;;;;;;;;;16.16;89.53;101751.47;5050084;28;19917;-73
2022/10/02 10:39:53;;;;;;;;;;;;;;;16.17;89.15;101762.84;5047535;28;19920;-74
2022/10/02 10:42:29;;;;;;;;;;;;;;;16.17;89.27;101768.97;5049979;28;19916;-73
2022/10/02 10:45:07;;;;;;;;;;;;;;;16.15;88.21;101770.72;5049740;28;20311;-74
2022/10/02 10:47:42;;;;;;;;;;;;;;;16.10;88.74;101767.13;5035045;28;19921;-73
2022/10/02 10:50:26;;;;;;;;;;;;;;;16.09;88.15;101765.38;5036493;28;19970;-73
2022/10/02 10:53:02;;;;;;;;;;;;;;;16.08;88.72;101781.13;5049936;28;19952;-73
2022/10/02 10:55:37;;;;;;;;;;;;;;;16.12;88.72;101777.66;5049156;28;19913;-73
2022/10/02 10:58:20;;;;;;;;;;;;;;;16.19;88.24;101776.00;5047261;28;19962;-66
2022/10/02 11:01:00;;;;;;;;;;;;;;;16.25;88.23;101762.94;5049687;28;20350;-66
2022/10/02 11:03:33;;;;;;;;;;;;;;;16.30;88.23;101766.56;5049647;28;19916;-67
2022/10/02 11:06:08;;;;;;;;;;;;;;;16.30;87.72;101761.28;5045593;28;19991;-66
2022/10/02 11:08:33;;;;;;;;;;;;;;;16.32;87.40;101772.69;5045156;28;20459;-66
2022/10/02 11:11:06;;;;;;;;;;;;;;;16.37;87.82;101762.28;5048623;28;19991;-66
2022/10/02 11:13:47;;;;;;;;;;;;;;;16.36;86.92;101758.75;5053254;28;20388;-66
2022/10/02 11:16:30;;;;;;;;;;;;;;;16.39;87.29;101760.53;5036424;28;19917;-66
2022/10/02 11:19:03;;;;;;;;;;;;;;;16.44;86.70;101769.41;5040516;28;20395;-66
2022/10/02 11:21:38;;;;;;;;;;;;;;;16.50;87.13;101769.47;5039184;28;20019;-67
2022/10/02 11:24:13;;;;;;;;;;;;;;;16.57;86.46;101773.94;5053418;28;19996;-67
2022/10/02 11:26:47;;;;;;;;;;;;;;;16.64;86.32;101786.34;5053129;28;19921;-73
2022/10/02 11:29:12;;;;;;;;;;;;;;;16.69;86.76;101784.63;5053055;28;20348;-73
2022/10/02 11:31:56;;;;;;;;;;;;;;;16.76;86.13;101780.34;5045199;28;20486;-72
2022/10/02 11:34:32;;;;;;;;;;;;;;;16.81;86.18;101777.75;5046620;28;19918;-73
2022/10/02 11:37:04;;;;;;;;;;;;;;;16.83;86.21;101783.94;5045372;28;19966;-73
2022/10/02 11:39:58;;;;;;;;;;;;;;;16.79;85.39;101790.91;5052738;28;19913;-73
2022/10/02 11:42:41;;;;;;;;;;;;;;;16.72;84.91;101777.66;5032901;28;19921;-73
2022/10/02 11:45:25;;;;;;;;;;;;;;;16.66;85.38;101794.25;5031862;28;19921;-73
2022/10/02 11:48:11;;;;;;;;;;;;;;;16.59;85.50;101792.41;5039643;28;19921;-73
2022/10/02 11:50:55;;;;;;;;;;;;;;;16.51;84.86;101787.00;5038730;28;19920;-73
2022/10/02 11:53:33;;;;;;;;;;;;;;;16.43;84.38;101789.53;5052823;28;20045;-73
2022/10/02 11:56:06;;;;;;;;;;;;;;;16.39;84.27;101785.09;5031399;28;20011;-73
2022/10/02 11:58:44;;;;;;;;;;;;;;;16.36;84.90;101790.31;5032727;28;20498;-72
2022/10/02 12:01:18;;;;;;;;;;;;;;;16.34;84.59;101789.41;5040372;28;19913;-72
2022/10/02 12:04:02;;;;;;;;;;;;;;;16.35;85.16;101791.16;5048705;28;19932;-73
2022/10/02 12:06:28;;;;;;;;;;;;;;;16.36;85.11;101785.03;5033063;28;19925;-73
2022/10/02 12:08:56;;;;;;;;;;;;;;;16.35;85.37;101791.16;5048859;28;19920;-72
2022/10/02 12:11:32;;;;;;;;;;;;;;;16.38;85.10;101792.97;5052241;28;20423;-73
2022/10/02 12:14:02;;;;;;;;;;;;;;;16.39;84.67;101798.25;5052216;28;20413;-73
2022/10/02 12:16:38;;;;;;;;;;;;;;;16.39;85.03;101803.50;5052227;28;19912;-72
2022/10/02 12:19:18;;;;;;;;;;;;;;;16.39;85.06;101811.38;5034407;28;19921;-72
2022/10/02 12:27:25;;;;;;;;;;;;;;;16.39;84.83;101821.91;5028626;28;19963;-65
2022/10/02 12:30:00;;;;;;;;;;;;;;;16.40;84.72;101822.81;5029919;28;20440;-66
2022/10/02 12:32:39;;;;;;;;;;;;;;;16.39;85.11;101821.03;5026346;28;20408;-66
2022/10/02 12:35:04;;;;;;;;;;;;;;;16.40;84.88;101814.91;5025624;28;20012;-65
2022/10/02 12:37:39;;;;;;;;;;;;;;;16.43;85.18;101817.59;5021477;28;20015;-66
2022/10/02 12:40:23;;;;;;;;;;;;;;;16.50;85.27;101820.31;5016597;28;19948;-65
2022/10/02 12:43:01;;;;;;;;;;;;;;;16.61;84.84;101819.59;5021253;28;20015;-65
2022/10/02 12:45:27;;;;;;;;;;;;;;;16.70;84.93;101814.47;5013890;28;20407;-65
2022/10/02 12:47:59;;;;;;;;;;;;;;;16.80;84.68;101819.00;5017633;28;19922;-66
2022/10/02 12:50:30;;;;;;;;;;;;;;;16.89;84.81;101817.38;5021600;28;19982;-66
2022/10/02 12:53:14;;;;;;;;;;;;;;;16.95;84.29;101814.84;5016287;28;20401;-65
2022/10/02 12:55:48;;;;;;;;;;;;;;;16.92;84.43;101818.31;5014525;28;20451;-66
2022/10/02 12:58:22;;;;;;;;;;;;;;;16.94;84.34;101818.31;5026528;28;19962;-66
2022/10/02 13:01:10;;;;;;;;;;;;;;;16.92;84.04;101818.31;5020549;28;20084;-65
2022/10/02 13:03:36;;;;;;;;;;;;;;;16.85;84.11;101822.56;5022649;28;19929;-66
2022/10/02 13:06:20;;;;;;;;;;;;;;;16.79;84.13;101821.63;5027548;28;19914;-66
2022/10/02 13:09:04;;;;;;;;;;;;;;;16.70;83.96;101825.00;5023522;28;19925;-65
2022/10/02 13:11:49;;;;;;;;;;;;;;;16.64;83.86;101824.91;5030266;28;19917;-66
2022/10/02 13:14:32;;;;;;;;;;;;;;;16.66;83.72;101829.34;5015105;28;19929;-65
2022/10/02 13:17:04;;;;;;;;;;;;;;;16.73;83.34;101821.50;5026914;28;19917;-66
2022/10/02 13:19:29;;;;;;;;;;;;;;;16.79;82.53;101821.63;5019692;28;19918;-66
2022/10/02 13:21:57;;;;;;;;;;;;;;;16.82;81.75;101822.53;5018840;28;19928;-66